Terminal Aerodrome Forecast
Issued by NWS North Platte, NE

Home | Current Version | Previous Version | Graphics & Text | Print | Product List | Glossary On
Versions: 1 2 3 4 5 6 7 8 9 10 11 12 13
283
FTUS43 KLBF 030520
TAFVTN
TAF
KVTN 030520Z 0306/0406 VRB02KT P6SM -SHRA SCT035 OVC050
     FM030800 VRB02KT 5SM BR SCT010
     FM031400 31009KT P6SM SCT250=

USA.gov is the U.S. government's official web portal to all federal, state and local government web resources and services.